sensor_id;sensor_type;location;lat;lon;timestamp;temperature;humidity
74520;DHT22;63002;48.134;-1.948;2023-10-19T05:01:51;21.90;56.50
74520;DHT22;63002;48.134;-1.948;2023-10-19T05:04:17;22.00;56.40
74520;DHT22;63002;48.134;-1.948;2023-10-19T05:06:43;22.00;56.80
74520;DHT22;63002;48.134;-1.948;2023-10-19T05:09:09;22.00;56.70
74520;DHT22;63002;48.134;-1.948;2023-10-19T05:11:37;22.00;57.10
74520;DHT22;63002;48.134;-1.948;2023-10-19T05:14:05;22.00;57.10
74520;DHT22;63002;48.134;-1.948;2023-10-19T05:16:30;22.00;57.10
74520;DHT22;63002;48.134;-1.948;2023-10-19T05:18:56;22.00;57.00
74520;DHT22;63002;48.134;-1.948;2023-10-19T05:21:22;22.00;57.20
74520;DHT22;63002;48.134;-1.948;2023-10-19T05:23:48;22.00;57.50
74520;DHT22;63002;48.134;-1.948;2023-10-19T05:26:14;22.00;57.20
74520;DHT22;63002;48.134;-1.948;2023-10-19T05:28:40;22.00;57.10
74520;DHT22;63002;48.134;-1.948;2023-10-19T05:31:08;22.00;57.10
74520;DHT22;63002;48.134;-1.948;2023-10-19T05:33:34;22.00;57.10
74520;DHT22;63002;48.134;-1.948;2023-10-19T05:35:59;22.00;57.00
74520;DHT22;63002;48.134;-1.948;2023-10-19T05:38:26;22.00;56.90
74520;DHT22;63002;48.134;-1.948;2023-10-19T05:40:52;22.00;56.90
74520;DHT22;63002;48.134;-1.948;2023-10-19T05:43:20;22.00;56.80
74520;DHT22;63002;48.134;-1.948;2023-10-19T05:45:46;22.00;56.80
74520;DHT22;63002;48.134;-1.948;2023-10-19T05:48:15;22.00;56.70
74520;DHT22;63002;48.134;-1.948;2023-10-19T05:50:41;22.10;56.80
74520;DHT22;63002;48.134;-1.948;2023-10-19T05:53:08;22.00;56.80
74520;DHT22;63002;48.134;-1.948;2023-10-19T05:55:33;22.00;56.80
74520;DHT22;63002;48.134;-1.948;2023-10-19T05:58:01;22.00;56.90
74520;DHT22;63002;48.134;-1.948;2023-10-19T06:00:30;22.00;56.80
74520;DHT22;63002;48.134;-1.948;2023-10-19T06:02:56;22.00;56.80
74520;DHT22;63002;48.134;-1.948;2023-10-19T06:05:23;22.00;56.70
74520;DHT22;63002;48.134;-1.948;2023-10-19T06:07:50;22.10;56.70
74520;DHT22;63002;48.134;-1.948;2023-10-19T06:10:19;22.10;56.50
74520;DHT22;63002;48.134;-1.948;2023-10-19T06:12:48;22.10;56.90
74520;DHT22;63002;48.134;-1.948;2023-10-19T06:15:16;22.20;56.70
74520;DHT22;63002;48.134;-1.948;2023-10-19T06:17:43;22.20;56.60
74520;DHT22;63002;48.134;-1.948;2023-10-19T06:20:10;22.20;56.50
74520;DHT22;63002;48.134;-1.948;2023-10-19T06:22:47;22.20;56.60
74520;DHT22;63002;48.134;-1.948;2023-10-19T06:25:19;22.20;56.50
74520;DHT22;63002;48.134;-1.948;2023-10-19T06:27:47;22.20;56.60
74520;DHT22;63002;48.134;-1.948;2023-10-19T06:30:14;22.20;56.40
74520;DHT22;63002;48.134;-1.948;2023-10-19T06:32:55;22.20;56.40
74520;DHT22;63002;48.134;-1.948;2023-10-19T06:35:22;22.20;56.40
74520;DHT22;63002;48.134;-1.948;2023-10-19T06:37:48;22.20;56.40
74520;DHT22;63002;48.134;-1.948;2023-10-19T06:40:15;22.20;56.30
74520;DHT22;63002;48.134;-1.948;2023-10-19T06:42:45;22.20;56.40
74520;DHT22;63002;48.134;-1.948;2023-10-19T06:45:16;22.20;56.40
74520;DHT22;63002;48.134;-1.948;2023-10-19T06:47:46;22.20;56.40
74520;DHT22;63002;48.134;-1.948;2023-10-19T06:50:13;22.20;56.40
74520;DHT22;63002;48.134;-1.948;2023-10-19T06:52:41;22.20;56.50
74520;DHT22;63002;48.134;-1.948;2023-10-19T06:55:09;22.20;56.40
74520;DHT22;63002;48.134;-1.948;2023-10-19T06:57:53;22.20;56.30
74520;DHT22;63002;48.134;-1.948;2023-10-19T07:00:21;22.20;56.40
74520;DHT22;63002;48.134;-1.948;2023-10-19T07:02:50;22.20;56.40
74520;DHT22;63002;48.134;-1.948;2023-10-19T07:05:17;22.20;56.40
74520;DHT22;63002;48.134;-1.948;2023-10-19T07:07:56;22.10;56.50
74520;DHT22;63002;48.134;-1.948;2023-10-19T07:10:22;22.20;56.40
74520;DHT22;63002;48.134;-1.948;2023-10-19T07:12:52;22.20;56.40
74520;DHT22;63002;48.134;-1.948;2023-10-19T07:15:19;22.30;56.80
74520;DHT22;63002;48.134;-1.948;2023-10-19T07:17:46;22.30;56.70
74520;DHT22;63002;48.134;-1.948;2023-10-19T07:20:14;22.30;56.70
74520;DHT22;63002;48.134;-1.948;2023-10-19T07:22:59;22.30;56.70
74520;DHT22;63002;48.134;-1.948;2023-10-19T07:25:35;22.30;56.70
74520;DHT22;63002;48.134;-1.948;2023-10-19T07:28:11;22.20;56.60
74520;DHT22;63002;48.134;-1.948;2023-10-19T07:30:38;22.20;56.60
74520;DHT22;63002;48.134;-1.948;2023-10-19T07:33:04;22.30;56.50
74520;DHT22;63002;48.134;-1.948;2023-10-19T07:35:34;22.20;56.50
74520;DHT22;63002;48.134;-1.948;2023-10-19T07:38:03;22.20;56.50
74520;DHT22;63002;48.134;-1.948;2023-10-19T07:40:30;22.30;56.40
74520;DHT22;63002;48.134;-1.948;2023-10-19T07:42:56;22.30;56.40
74520;DHT22;63002;48.134;-1.948;2023-10-19T07:45:22;22.20;56.40
74520;DHT22;63002;48.134;-1.948;2023-10-19T07:47:48;22.20;56.50
74520;DHT22;63002;48.134;-1.948;2023-10-19T07:50:14;22.20;56.40
74520;DHT22;63002;48.134;-1.948;2023-10-19T07:52:49;22.20;56.40
74520;DHT22;63002;48.134;-1.948;2023-10-19T07:55:17;22.20;56.40
74520;DHT22;63002;48.134;-1.948;2023-10-19T07:57:43;22.20;56.40
74520;DHT22;63002;48.134;-1.948;2023-10-19T08:00:10;22.10;56.50
74520;DHT22;63002;48.134;-1.948;2023-10-19T08:02:39;22.20;56.50
74520;DHT22;63002;48.134;-1.948;2023-10-19T08:05:07;22.20;56.50
74520;DHT22;63002;48.134;-1.948;2023-10-19T08:07:33;22.10;56.50
74520;DHT22;63002;48.134;-1.948;2023-10-19T08:10:02;22.10;56.50
74520;DHT22;63002;48.134;-1.948;2023-10-19T08:12:31;22.10;56.50
74520;DHT22;63002;48.134;-1.948;2023-10-19T08:14:58;22.20;56.40
74520;DHT22;63002;48.134;-1.948;2023-10-19T08:17:25;22.20;56.40
74520;DHT22;63002;48.134;-1.948;2023-10-19T08:19:51;22.20;56.40
74520;DHT22;63002;48.134;-1.948;2023-10-19T08:22:16;22.20;56.40
74520;DHT22;63002;48.134;-1.948;2023-10-19T08:24:42;22.20;56.40
74520;DHT22;63002;48.134;-1.948;2023-10-19T08:27:15;22.20;56.40
74520;DHT22;63002;48.134;-1.948;2023-10-19T08:29:43;22.10;56.40
74520;DHT22;63002;48.134;-1.948;2023-10-19T08:32:08;22.10;56.50
74520;DHT22;63002;48.134;-1.948;2023-10-19T08:34:35;22.10;56.40
74520;DHT22;63002;48.134;-1.948;2023-10-19T08:37:02;22.10;56.40
74520;DHT22;63002;48.134;-1.948;2023-10-19T08:39:28;22.20;56.40
74520;DHT22;63002;48.134;-1.948;2023-10-19T08:41:53;22.10;56.40
74520;DHT22;63002;48.134;-1.948;2023-10-19T08:44:21;22.10;56.40
74520;DHT22;63002;48.134;-1.948;2023-10-19T08:46:47;22.20;56.30
74520;DHT22;63002;48.134;-1.948;2023-10-19T08:49:14;22.20;56.30
74520;DHT22;63002;48.134;-1.948;2023-10-19T08:51:44;22.20;56.30
74520;DHT22;63002;48.134;-1.948;2023-10-19T08:54:14;22.20;56.40
74520;DHT22;63002;48.134;-1.948;2023-10-19T08:56:41;22.20;56.40
74520;DHT22;63002;48.134;-1.948;2023-10-19T08:59:10;22.10;56.40
74520;DHT22;63002;48.134;-1.948;2023-10-19T09:01:37;22.10;56.40
74520;DHT22;63002;48.134;-1.948;2023-10-19T09:04:04;22.10;56.40
74520;DHT22;63002;48.134;-1.948;2023-10-19T09:06:37;22.10;56.60
74520;DHT22;63002;48.134;-1.948;2023-10-19T09:09:10;22.10;56.50
74520;DHT22;63002;48.134;-1.948;2023-10-19T09:11:46;22.10;56.50
74520;DHT22;63002;48.134;-1.948;2023-10-19T09:14:13;22.10;56.60
74520;DHT22;63002;48.134;-1.948;2023-10-19T09:16:59;22.00;56.60
74520;DHT22;63002;48.134;-1.948;2023-10-19T09:19:43;22.00;56.70
74520;DHT22;63002;48.134;-1.948;2023-10-19T09:22:10;22.00;56.70
74520;DHT22;63002;48.134;-1.948;2023-10-19T09:24:51;22.00;56.70
74520;DHT22;63002;48.134;-1.948;2023-10-19T09:27:19;22.00;56.70
74520;DHT22;63002;48.134;-1.948;2023-10-19T09:29:46;22.00;56.70
74520;DHT22;63002;48.134;-1.948;2023-10-19T09:32:12;22.00;56.70
74520;DHT22;63002;48.134;-1.948;2023-10-19T09:34:41;22.00;56.70
74520;DHT22;63002;48.134;-1.948;2023-10-19T09:37:09;22.00;56.60
74520;DHT22;63002;48.134;-1.948;2023-10-19T09:39:35;22.00;56.60
74520;DHT22;63002;48.134;-1.948;2023-10-19T09:42:06;22.10;56.60
74520;DHT22;63002;48.134;-1.948;2023-10-19T09:44:47;22.00;56.60
74520;DHT22;63002;48.134;-1.948;2023-10-19T09:47:23;22.10;56.50
74520;DHT22;63002;48.134;-1.948;2023-10-19T09:49:52;22.10;56.50
74520;DHT22;63002;48.134;-1.948;2023-10-19T09:52:17;22.00;56.60
74520;DHT22;63002;48.134;-1.948;2023-10-19T09:55:22;22.10;56.60
74520;DHT22;63002;48.134;-1.948;2023-10-19T09:57:58;22.00;56.60
74520;DHT22;63002;48.134;-1.948;2023-10-19T10:00:25;22.00;56.70
74520;DHT22;63002;48.134;-1.948;2023-10-19T10:02:51;22.00;56.60
74520;DHT22;63002;48.134;-1.948;2023-10-19T10:10:44;22.00;56.60
74520;DHT22;63002;48.134;-1.948;2023-10-19T10:15:57;22.00;56.70
74520;DHT22;63002;48.134;-1.948;2023-10-19T10:18:31;22.00;56.70
74520;DHT22;63002;48.134;-1.948;2023-10-19T10:21:12;22.00;56.80
74520;DHT22;63002;48.134;-1.948;2023-10-19T10:23:46;22.00;56.80
74520;DHT22;63002;48.134;-1.948;2023-10-19T10:26:17;22.00;56.70
74520;DHT22;63002;48.134;-1.948;2023-10-19T10:28:48;22.00;56.80
74520;DHT22;63002;48.134;-1.948;2023-10-19T10:31:15;22.00;56.70
74520;DHT22;63002;48.134;-1.948;2023-10-19T10:33:45;22.00;56.60
74520;DHT22;63002;48.134;-1.948;2023-10-19T10:36:13;22.00;56.70
74520;DHT22;63002;48.134;-1.948;2023-10-19T10:38:39;22.10;56.60
74520;DHT22;63002;48.134;-1.948;2023-10-19T10:41:06;22.00;56.60
74520;DHT22;63002;48.134;-1.948;2023-10-19T10:43:49;22.00;56.70
74520;DHT22;63002;48.134;-1.948;2023-10-19T10:46:20;22.00;56.70
74520;DHT22;63002;48.134;-1.948;2023-10-19T10:48:47;22.10;56.60
74520;DHT22;63002;48.134;-1.948;2023-10-19T10:51:25;22.00;56.70
74520;DHT22;63002;48.134;-1.948;2023-10-19T10:53:54;22.00;56.80
74520;DHT22;63002;48.134;-1.948;2023-10-19T10:56:23;21.90;56.90
74520;DHT22;63002;48.134;-1.948;2023-10-19T10:58:49;22.00;56.90
74520;DHT22;63002;48.134;-1.948;2023-10-19T11:01:27;21.90;57.20
74520;DHT22;63002;48.134;-1.948;2023-10-19T11:04:06;21.90;56.90
74520;DHT22;63002;48.134;-1.948;2023-10-19T11:06:32;21.90;57.00
74520;DHT22;63002;48.134;-1.948;2023-10-19T11:08:58;22.00;56.90
74520;DHT22;63002;48.134;-1.948;2023-10-19T11:11:37;21.90;56.90
74520;DHT22;63002;48.134;-1.948;2023-10-19T11:14:11;21.90;56.90
74520;DHT22;63002;48.134;-1.948;2023-10-19T11:16:37;22.00;56.80
74520;DHT22;63002;48.134;-1.948;2023-10-19T11:19:05;22.00;56.80
74520;DHT22;63002;48.134;-1.948;2023-10-19T11:21:31;22.00;56.80
74520;DHT22;63002;48.134;-1.948;2023-10-19T11:23:56;21.90;56.90
74520;DHT22;63002;48.134;-1.948;2023-10-19T11:26:23;21.90;57.00
74520;DHT22;63002;48.134;-1.948;2023-10-19T11:29:02;21.90;57.00
74520;DHT22;63002;48.134;-1.948;2023-10-19T11:31:35;21.90;56.90
74520;DHT22;63002;48.134;-1.948;2023-10-19T11:34:05;22.00;56.90
74520;DHT22;63002;48.134;-1.948;2023-10-19T11:36:31;21.90;56.90
74520;DHT22;63002;48.134;-1.948;2023-10-19T11:38:56;21.90;56.90
74520;DHT22;63002;48.134;-1.948;2023-10-19T11:41:23;22.00;56.80
74520;DHT22;63002;48.134;-1.948;2023-10-19T11:43:49;21.90;56.80
74520;DHT22;63002;48.134;-1.948;2023-10-19T11:46:16;21.90;56.90
74520;DHT22;63002;48.134;-1.948;2023-10-19T11:48:48;22.00;56.80
74520;DHT22;63002;48.134;-1.948;2023-10-19T11:51:14;22.00;56.80
74520;DHT22;63002;48.134;-1.948;2023-10-19T11:53:41;22.00;56.80
74520;DHT22;63002;48.134;-1.948;2023-10-19T11:56:09;22.00;56.70
74520;DHT22;63002;48.134;-1.948;2023-10-19T11:58:37;22.00;56.60
74520;DHT22;63002;48.134;-1.948;2023-10-19T12:01:05;22.10;56.50
74520;DHT22;63002;48.134;-1.948;2023-10-19T12:03:34;22.00;56.60
74520;DHT22;63002;48.134;-1.948;2023-10-19T12:06:05;22.00;56.70
74520;DHT22;63002;48.134;-1.948;2023-10-19T12:08:33;22.00;56.60
74520;DHT22;63002;48.134;-1.948;2023-10-19T12:10:59;22.10;56.40
74520;DHT22;63002;48.134;-1.948;2023-10-19T12:13:27;22.10;56.40
74520;DHT22;63002;48.134;-1.948;2023-10-19T12:15:54;22.10;56.40
74520;DHT22;63002;48.134;-1.948;2023-10-19T12:18:22;22.10;56.50
74520;DHT22;63002;48.134;-1.948;2023-10-19T12:20:48;22.10;56.50
74520;DHT22;63002;48.134;-1.948;2023-10-19T12:23:14;22.10;56.40
74520;DHT22;63002;48.134;-1.948;2023-10-19T12:25:40;22.10;56.50
74520;DHT22;63002;48.134;-1.948;2023-10-19T12:28:08;22.10;56.40
74520;DHT22;63002;48.134;-1.948;2023-10-19T12:30:39;22.10;56.50
74520;DHT22;63002;48.134;-1.948;2023-10-19T12:33:06;22.10;56.60
74520;DHT22;63002;48.134;-1.948;2023-10-19T12:35:42;22.10;56.50
74520;DHT22;63002;48.134;-1.948;2023-10-19T12:38:13;22.10;56.50
74520;DHT22;63002;48.134;-1.948;2023-10-19T12:40:46;22.20;56.30
74520;DHT22;63002;48.134;-1.948;2023-10-19T12:43:14;22.10;56.30
74520;DHT22;63002;48.134;-1.948;2023-10-19T12:45:40;22.10;56.40
74520;DHT22;63002;48.134;-1.948;2023-10-19T12:48:07;22.10;56.40
74520;DHT22;63002;48.134;-1.948;2023-10-19T12:50:37;22.10;56.40
74520;DHT22;63002;48.134;-1.948;2023-10-19T12:53:03;22.10;56.50
74520;DHT22;63002;48.134;-1.948;2023-10-19T12:55:29;22.00;56.50
74520;DHT22;63002;48.134;-1.948;2023-10-19T12:57:57;22.00;56.60
74520;DHT22;63002;48.134;-1.948;2023-10-19T13:00:23;22.00;56.70
74520;DHT22;63002;48.134;-1.948;2023-10-19T13:02:52;22.00;56.60
74520;DHT22;63002;48.134;-1.948;2023-10-19T13:05:32;22.00;56.60
74520;DHT22;63002;48.134;-1.948;2023-10-19T13:07:57;22.00;56.60
74520;DHT22;63002;48.134;-1.948;2023-10-19T13:10:33;22.00;56.60
74520;DHT22;63002;48.134;-1.948;2023-10-19T13:13:07;22.00;56.60
74520;DHT22;63002;48.134;-1.948;2023-10-19T13:15:36;22.00;56.70
74520;DHT22;63002;48.134;-1.948;2023-10-19T13:18:06;22.00;56.60
74520;DHT22;63002;48.134;-1.948;2023-10-19T13:20:34;22.00;56.70
74520;DHT22;63002;48.134;-1.948;2023-10-19T13:23:05;22.00;56.70
74520;DHT22;63002;48.134;-1.948;2023-10-19T13:25:33;22.00;56.60
74520;DHT22;63002;48.134;-1.948;2023-10-19T13:28:13;22.00;56.60
74520;DHT22;63002;48.134;-1.948;2023-10-19T13:30:46;22.00;56.70
74520;DHT22;63002;48.134;-1.948;2023-10-19T13:33:16;22.00;56.70
74520;DHT22;63002;48.134;-1.948;2023-10-19T13:35:43;22.00;56.70
74520;DHT22;63002;48.134;-1.948;2023-10-19T13:38:10;22.00;56.70
74520;DHT22;63002;48.134;-1.948;2023-10-19T13:40:40;22.00;56.70
74520;DHT22;63002;48.134;-1.948;2023-10-19T13:43:07;22.00;56.70
74520;DHT22;63002;48.134;-1.948;2023-10-19T13:45:36;22.00;56.70
74520;DHT22;63002;48.134;-1.948;2023-10-19T13:48:05;22.00;56.70
74520;DHT22;63002;48.134;-1.948;2023-10-19T13:50:32;22.00;56.70
74520;DHT22;63002;48.134;-1.948;2023-10-19T13:52:58;21.90;56.70
74520;DHT22;63002;48.134;-1.948;2023-10-19T13:55:26;22.00;56.70
74520;DHT22;63002;48.134;-1.948;2023-10-19T13:57:52;21.90;56.70
74520;DHT22;63002;48.134;-1.948;2023-10-19T14:00:19;21.90;56.70
74520;DHT22;63002;48.134;-1.948;2023-10-19T14:02:52;21.90;56.70
74520;DHT22;63002;48.134;-1.948;2023-10-19T14:05:19;21.90;56.70
74520;DHT22;63002;48.134;-1.948;2023-10-19T14:07:46;21.90;56.80
74520;DHT22;63002;48.134;-1.948;2023-10-19T14:10:13;21.90;56.70
74520;DHT22;63002;48.134;-1.948;2023-10-19T14:12:40;21.90;56.70
74520;DHT22;63002;48.134;-1.948;2023-10-19T14:15:18;21.90;56.70
74520;DHT22;63002;48.134;-1.948;2023-10-19T14:17:46;21.90;56.80
74520;DHT22;63002;48.134;-1.948;2023-10-19T14:20:13;21.90;56.70
74520;DHT22;63002;48.134;-1.948;2023-10-19T14:22:41;21.90;56.80
74520;DHT22;63002;48.134;-1.948;2023-10-19T14:25:07;21.90;56.80
74520;DHT22;63002;48.134;-1.948;2023-10-19T14:27:40;21.90;56.70
74520;DHT22;63002;48.134;-1.948;2023-10-19T14:30:07;21.90;56.70
74520;DHT22;63002;48.134;-1.948;2023-10-19T14:32:33;21.90;56.70
74520;DHT22;63002;48.134;-1.948;2023-10-19T14:34:59;21.90;56.70
74520;DHT22;63002;48.134;-1.948;2023-10-19T14:37:25;21.90;56.70
74520;DHT22;63002;48.134;-1.948;2023-10-19T14:39:51;21.90;56.70
74520;DHT22;63002;48.134;-1.948;2023-10-19T14:42:16;21.90;56.70
74520;DHT22;63002;48.134;-1.948;2023-10-19T14:44:42;21.90;56.70
74520;DHT22;63002;48.134;-1.948;2023-10-19T14:47:08;21.90;56.60
74520;DHT22;63002;48.134;-1.948;2023-10-19T14:49:34;21.90;56.70
74520;DHT22;63002;48.134;-1.948;2023-10-19T14:52:00;22.00;56.60
74520;DHT22;63002;48.134;-1.948;2023-10-19T14:54:26;21.90;56.60
74520;DHT22;63002;48.134;-1.948;2023-10-19T14:56:51;21.90;56.60
74520;DHT22;63002;48.134;-1.948;2023-10-19T14:59:17;21.90;56.70
74520;DHT22;63002;48.134;-1.948;2023-10-19T15:01:43;21.90;56.60
74520;DHT22;63002;48.134;-1.948;2023-10-19T15:04:09;21.90;56.60
74520;DHT22;63002;48.134;-1.948;2023-10-19T15:06:35;21.90;56.60
74520;DHT22;63002;48.134;-1.948;2023-10-19T15:09:02;21.90;56.70
74520;DHT22;63002;48.134;-1.948;2023-10-19T15:11:28;21.90;56.60
74520;DHT22;63002;48.134;-1.948;2023-10-19T15:13:53;21.90;56.70
74520;DHT22;63002;48.134;-1.948;2023-10-19T15:16:19;21.90;56.60
74520;DHT22;63002;48.134;-1.948;2023-10-19T15:18:45;22.00;56.50
74520;DHT22;63002;48.134;-1.948;2023-10-19T15:21:11;22.00;56.60
74520;DHT22;63002;48.134;-1.948;2023-10-19T15:23:39;22.10;56.30
74520;DHT22;63002;48.134;-1.948;2023-10-19T15:26:06;22.10;56.40
74520;DHT22;63002;48.134;-1.948;2023-10-19T15:28:32;22.10;56.20
74520;DHT22;63002;48.134;-1.948;2023-10-19T15:30:59;22.10;56.20
74520;DHT22;63002;48.134;-1.948;2023-10-19T15:33:28;22.10;56.40
74520;DHT22;63002;48.134;-1.948;2023-10-19T15:35:55;22.00;56.40
74520;DHT22;63002;48.134;-1.948;2023-10-19T15:38:21;22.00;56.40
74520;DHT22;63002;48.134;-1.948;2023-10-19T15:40:50;22.00;56.40
74520;DHT22;63002;48.134;-1.948;2023-10-19T15:43:15;22.00;56.40
74520;DHT22;63002;48.134;-1.948;2023-10-19T15:45:41;22.00;56.40
74520;DHT22;63002;48.134;-1.948;2023-10-19T15:48:10;22.00;56.60
74520;DHT22;63002;48.134;-1.948;2023-10-19T15:50:39;22.00;56.50
74520;DHT22;63002;48.134;-1.948;2023-10-19T15:53:08;21.90;56.60
74520;DHT22;63002;48.134;-1.948;2023-10-19T15:55:35;21.90;56.50
74520;DHT22;63002;48.134;-1.948;2023-10-19T15:58:01;22.00;56.50
74520;DHT22;63002;48.134;-1.948;2023-10-19T16:00:27;22.00;56.40
74520;DHT22;63002;48.134;-1.948;2023-10-19T16:02:53;21.90;56.50
74520;DHT22;63002;48.134;-1.948;2023-10-19T16:05:20;21.90;56.50
74520;DHT22;63002;48.134;-1.948;2023-10-19T16:07:46;21.90;56.60
74520;DHT22;63002;48.134;-1.948;2023-10-19T16:10:12;21.90;56.50
74520;DHT22;63002;48.134;-1.948;2023-10-19T16:12:39;21.90;56.60
74520;DHT22;63002;48.134;-1.948;2023-10-19T16:15:05;21.90;56.50
74520;DHT22;63002;48.134;-1.948;2023-10-19T16:17:32;21.90;56.50
74520;DHT22;63002;48.134;-1.948;2023-10-19T16:19:58;21.90;56.50
74520;DHT22;63002;48.134;-1.948;2023-10-19T16:22:24;22.00;56.50
74520;DHT22;63002;48.134;-1.948;2023-10-19T16:24:50;21.90;56.50
74520;DHT22;63002;48.134;-1.948;2023-10-19T16:27:16;21.90;56.60
74520;DHT22;63002;48.134;-1.948;2023-10-19T16:29:42;21.90;56.90
74520;DHT22;63002;48.134;-1.948;2023-10-19T16:32:07;21.80;57.20
74520;DHT22;63002;48.134;-1.948;2023-10-19T16:34:35;21.80;57.10
74520;DHT22;63002;48.134;-1.948;2023-10-19T16:37:01;21.90;57.10
74520;DHT22;63002;48.134;-1.948;2023-10-19T16:39:26;21.90;57.10
74520;DHT22;63002;48.134;-1.948;2023-10-19T16:41:53;21.90;57.00
74520;DHT22;63002;48.134;-1.948;2023-10-19T16:44:20;22.00;56.90
74520;DHT22;63002;48.134;-1.948;2023-10-19T16:46:46;22.00;56.90
74520;DHT22;63002;48.134;-1.948;2023-10-19T16:49:12;22.00;56.80
74520;DHT22;63002;48.134;-1.948;2023-10-19T16:51:40;21.90;57.50
74520;DHT22;63002;48.134;-1.948;2023-10-19T16:54:07;22.00;57.50
74520;DHT22;63002;48.134;-1.948;2023-10-19T16:56:34;22.00;57.50
74520;DHT22;63002;48.134;-1.948;2023-10-19T16:59:01;22.10;57.40
74520;DHT22;63002;48.134;-1.948;2023-10-19T17:01:26;22.10;57.30
74520;DHT22;63002;48.134;-1.948;2023-10-19T17:03:54;22.10;57.30
74520;DHT22;63002;48.134;-1.948;2023-10-19T17:06:20;22.00;57.50
74520;DHT22;63002;48.134;-1.948;2023-10-19T17:08:47;22.00;57.50
74520;DHT22;63002;48.134;-1.948;2023-10-19T17:11:13;22.00;57.50
74520;DHT22;63002;48.134;-1.948;2023-10-19T17:13:39;21.90;57.50
74520;DHT22;63002;48.134;-1.948;2023-10-19T17:16:05;21.90;57.50
74520;DHT22;63002;48.134;-1.948;2023-10-19T17:18:31;21.90;57.40
74520;DHT22;63002;48.134;-1.948;2023-10-19T17:20:57;22.00;57.70
74520;DHT22;63002;48.134;-1.948;2023-10-19T17:23:23;22.00;57.70
74520;DHT22;63002;48.134;-1.948;2023-10-19T17:25:49;22.00;57.80
74520;DHT22;63002;48.134;-1.948;2023-10-19T17:28:16;22.00;57.60
74520;DHT22;63002;48.134;-1.948;2023-10-19T17:30:42;22.00;57.60
74520;DHT22;63002;48.134;-1.948;2023-10-19T17:33:09;22.00;57.60
74520;DHT22;63002;48.134;-1.948;2023-10-19T17:35:36;22.00;57.60
74520;DHT22;63002;48.134;-1.948;2023-10-19T17:38:04;22.00;57.40
74520;DHT22;63002;48.134;-1.948;2023-10-19T17:40:29;22.00;57.40
74520;DHT22;63002;48.134;-1.948;2023-10-19T17:42:55;22.00;57.40
74520;DHT22;63002;48.134;-1.948;2023-10-19T17:45:21;22.00;57.40
74520;DHT22;63002;48.134;-1.948;2023-10-19T17:47:47;22.00;57.40
74520;DHT22;63002;48.134;-1.948;2023-10-19T17:50:13;22.00;57.30
74520;DHT22;63002;48.134;-1.948;2023-10-19T17:52:39;22.00;57.30
74520;DHT22;63002;48.134;-1.948;2023-10-19T17:55:05;22.00;57.30
74520;DHT22;63002;48.134;-1.948;2023-10-19T17:57:34;22.00;57.30
74520;DHT22;63002;48.134;-1.948;2023-10-19T18:00:00;22.00;57.30
74520;DHT22;63002;48.134;-1.948;2023-10-19T18:02:26;22.00;57.30
74520;DHT22;63002;48.134;-1.948;2023-10-19T18:04:52;22.00;57.30
74520;DHT22;63002;48.134;-1.948;2023-10-19T18:07:22;22.00;57.30
74520;DHT22;63002;48.134;-1.948;2023-10-19T18:09:48;22.00;57.30
74520;DHT22;63002;48.134;-1.948;2023-10-19T18:12:15;22.00;57.30
74520;DHT22;63002;48.134;-1.948;2023-10-19T18:14:42;22.00;57.20
74520;DHT22;63002;48.134;-1.948;2023-10-19T18:17:08;22.00;57.30
74520;DHT22;63002;48.134;-1.948;2023-10-19T18:19:37;22.10;57.10
74520;DHT22;63002;48.134;-1.948;2023-10-19T18:22:03;22.10;57.10
74520;DHT22;63002;48.134;-1.948;2023-10-19T18:24:31;22.10;57.10
74520;DHT22;63002;48.134;-1.948;2023-10-19T18:27:01;22.00;57.20
74520;DHT22;63002;48.134;-1.948;2023-10-19T18:29:27;22.10;57.30
74520;DHT22;63002;48.134;-1.948;2023-10-19T18:31:55;22.10;57.10
74520;DHT22;63002;48.134;-1.948;2023-10-19T18:34:22;22.10;57.10
74520;DHT22;63002;48.134;-1.948;2023-10-19T18:36:53;22.10;57.10
74520;DHT22;63002;48.134;-1.948;2023-10-19T18:39:19;22.10;57.10
74520;DHT22;63002;48.134;-1.948;2023-10-19T18:41:46;22.10;57.20
74520;DHT22;63002;48.134;-1.948;2023-10-19T18:44:12;22.10;57.20
74520;DHT22;63002;48.134;-1.948;2023-10-19T18:46:38;22.00;57.30
74520;DHT22;63002;48.134;-1.948;2023-10-19T18:49:04;22.00;57.30
74520;DHT22;63002;48.134;-1.948;2023-10-19T18:51:34;22.00;57.20
74520;DHT22;63002;48.134;-1.948;2023-10-19T18:54:02;22.00;57.20
74520;DHT22;63002;48.134;-1.948;2023-10-19T18:56:31;22.00;57.20
74520;DHT22;63002;48.134;-1.948;2023-10-19T18:58:59;22.00;57.30
74520;DHT22;63002;48.134;-1.948;2023-10-19T19:01:25;22.10;57.20
74520;DHT22;63002;48.134;-1.948;2023-10-19T19:03:51;22.10;57.10
74520;DHT22;63002;48.134;-1.948;2023-10-19T19:06:17;22.00;57.90
74520;DHT22;63002;48.134;-1.948;2023-10-19T19:08:45;22.00;57.90
74520;DHT22;63002;48.134;-1.948;2023-10-19T19:11:15;22.00;57.60
74520;DHT22;63002;48.134;-1.948;2023-10-19T19:13:42;22.10;57.40
74520;DHT22;63002;48.134;-1.948;2023-10-19T19:16:08;22.10;57.40
74520;DHT22;63002;48.134;-1.948;2023-10-19T19:18:34;22.10;57.30
74520;DHT22;63002;48.134;-1.948;2023-10-19T19:21:00;22.10;57.30
74520;DHT22;63002;48.134;-1.948;2023-10-19T19:23:32;22.10;57.30
74520;DHT22;63002;48.134;-1.948;2023-10-19T19:25:57;22.10;57.20
74520;DHT22;63002;48.134;-1.948;2023-10-19T19:28:23;22.10;57.30
74520;DHT22;63002;48.134;-1.948;2023-10-19T19:30:49;22.10;57.20
74520;DHT22;63002;48.134;-1.948;2023-10-19T19:33:15;22.10;57.20
74520;DHT22;63002;48.134;-1.948;2023-10-19T19:35:45;22.10;57.20
74520;DHT22;63002;48.134;-1.948;2023-10-19T19:38:10;22.10;57.20
74520;DHT22;63002;48.134;-1.948;2023-10-19T19:40:39;22.10;57.10
74520;DHT22;63002;48.134;-1.948;2023-10-19T19:43:05;22.10;57.10
74520;DHT22;63002;48.134;-1.948;2023-10-19T19:45:34;22.10;57.00
74520;DHT22;63002;48.134;-1.948;2023-10-19T19:48:02;22.10;57.00
74520;DHT22;63002;48.134;-1.948;2023-10-19T19:50:29;22.10;57.10
74520;DHT22;63002;48.134;-1.948;2023-10-19T19:52:55;22.20;57.10
74520;DHT22;63002;48.134;-1.948;2023-10-19T19:55:20;22.30;57.20
74520;DHT22;63002;48.134;-1.948;2023-10-19T19:57:46;22.40;57.40
74520;DHT22;63002;48.134;-1.948;2023-10-19T20:00:14;22.50;57.90
74520;DHT22;63002;48.134;-1.948;2023-10-19T20:02:48;22.50;57.50
74520;DHT22;63002;48.134;-1.948;2023-10-19T20:05:15;22.40;57.60
74520;DHT22;63002;48.134;-1.948;2023-10-19T20:07:42;22.40;57.60
74520;DHT22;63002;48.134;-1.948;2023-10-19T20:10:10;22.40;57.70
74520;DHT22;63002;48.134;-1.948;2023-10-19T20:12:37;22.30;57.90
74520;DHT22;63002;48.134;-1.948;2023-10-19T20:15:03;22.30;57.90
74520;DHT22;63002;48.134;-1.948;2023-10-19T20:17:30;22.30;57.90
74520;DHT22;63002;48.134;-1.948;2023-10-19T20:19:57;22.20;57.80
74520;DHT22;63002;48.134;-1.948;2023-10-19T20:22:23;22.30;57.80
74520;DHT22;63002;48.134;-1.948;2023-10-19T20:24:49;22.30;57.70
74520;DHT22;63002;48.134;-1.948;2023-10-19T20:27:15;22.30;57.70
74520;DHT22;63002;48.134;-1.948;2023-10-19T20:29:41;22.30;57.60